Duck, North Carolina
Current Conditions -  °F | °C
As of 4:35 AM on Monday 24 Nov 2014 (Local Time) from KFFA Reporting Station
Moderate Rain Moderate Rain  
Wind Chill: 65°   Ceiling: 3600
Heat Index: 65°   Visibility: 2.5mi
Dew Point: 65°   Wind: 9mph
Humidity: 98%   Direction: 180°S
Pressure: 29.81"   Gusts: 22mph
Location:  36.1034°N, 75.7289°W
Report Text: KFFA 240935Z AUTO 18008G19KT 140V220 2 1/2SM RA SCT020 BKN036 OVC049 19/18 A2981 RMK AO2 T01860182
Loading
Personal Weather Stations






























Interactive Weather Map New forecast layout! Learn more

10-Day Weather Forecast

Advertisements
Track Severe Weather on mobile